Time;durP1;ratioP1;P1;durP2;ratioP2;P2;SDS_P1;SDS_P2;PMS_P1;PMS_P2;Temp;Humidity;BMP_temperature;BMP_pressure;BME280_temperature;BME280_humidity;BME280_pressure;Samples;Min_cycle;Max_cycle;Signal;HPM_P1;HPM_P2
2021/01/12 00:00:39;;;;;;;87.10;26.20;;;;;;;;;;5083934;28;20574;-79
2021/01/12 00:03:47;;;;;;;88.33;25.50;;;;;;;;;;5104788;28;20738;-79
2021/01/12 00:06:51;;;;;;;81.23;25.10;;;;;;;;;;5115203;28;20601;-79
2021/01/12 00:10:00;;;;;;;82.10;24.50;;;;;;;;;;5085527;28;20267;-80
2021/01/12 00:13:05;;;;;;;87.33;26.00;;;;;;;;;;5092527;28;20692;-79
2021/01/12 00:16:10;;;;;;;84.03;24.53;;;;;;;;;;5103086;28;20675;-78
2021/01/12 00:19:14;;;;;;;87.33;24.90;;;;;;;;;;5096828;28;20204;-79
2021/01/12 00:22:19;;;;;;;78.27;25.23;;;;;;;;;;5089708;28;20232;-78
2021/01/12 00:25:25;;;;;;;90.97;26.47;;;;;;;;;;5091336;28;20774;-78
2021/01/12 00:28:30;;;;;;;91.10;25.20;;;;;;;;;;5099720;28;20259;-78
2021/01/12 00:31:38;;;;;;;90.37;25.50;;;;;;;;;;5084007;28;20251;-80
2021/01/12 00:34:42;;;;;;;85.57;25.10;;;;;;;;;;5100122;28;20757;-79
2021/01/12 00:37:47;;;;;;;87.27;25.37;;;;;;;;;;5103655;28;20206;-78
2021/01/12 00:40:53;;;;;;;88.73;26.03;;;;;;;;;;5088958;28;20225;-79
2021/01/12 00:43:58;;;;;;;94.60;25.73;;;;;;;;;;5083905;28;20282;-78
2021/01/12 00:47:04;;;;;;;93.93;26.07;;;;;;;;;;5093040;28;20324;-79
2021/01/12 00:50:09;;;;;;;91.30;27.10;;;;;;;;;;5092860;28;20251;-78
2021/01/12 00:53:14;;;;;;;90.60;26.80;;;;;;;;;;5092944;28;20217;-77
2021/01/12 00:56:19;;;;;;;87.80;27.80;;;;;;;;;;5089152;28;20221;-77
2021/01/12 00:59:23;;;;;;;90.87;27.00;;;;;;;;;;5088437;28;20190;-79
2021/01/12 01:02:28;;;;;;;91.53;25.47;;;;;;;;;;5088211;28;20236;-77
2021/01/12 01:05:33;;;;;;;103.60;27.60;;;;;;;;;;5101073;28;20252;-78
2021/01/12 01:08:39;;;;;;;87.37;27.67;;;;;;;;;;5093531;28;20339;-77
2021/01/12 01:11:45;;;;;;;103.63;28.57;;;;;;;;;;5091215;28;20286;-78
2021/01/12 01:14:51;;;;;;;111.60;27.93;;;;;;;;;;5088718;28;20197;-78
2021/01/12 01:17:55;;;;;;;98.10;28.27;;;;;;;;;;5097550;28;20200;-77
2021/01/12 01:21:00;;;;;;;100.03;29.53;;;;;;;;;;5088181;28;20265;-77
2021/01/12 01:24:05;;;;;;;101.50;29.30;;;;;;;;;;5097202;28;20573;-79
2021/01/12 01:27:11;;;;;;;109.23;31.17;;;;;;;;;;5097729;28;20800;-78
2021/01/12 01:30:16;;;;;;;112.33;28.93;;;;;;;;;;5091993;28;20217;-78
2021/01/12 01:33:21;;;;;;;103.30;29.27;;;;;;;;;;5098395;28;20230;-79
2021/01/12 01:36:26;;;;;;;112.33;29.30;;;;;;;;;;5085147;28;20189;-79
2021/01/12 01:39:30;;;;;;;95.00;27.20;;;;;;;;;;5108350;28;20215;-79
2021/01/12 01:42:37;;;;;;;110.97;29.00;;;;;;;;;;5092420;28;20229;-78
2021/01/12 01:45:42;;;;;;;101.07;28.00;;;;;;;;;;5100920;28;20252;-79
2021/01/12 01:48:48;;;;;;;100.90;28.73;;;;;;;;;;5092987;28;20212;-78
2021/01/12 01:51:53;;;;;;;93.60;28.20;;;;;;;;;;5106915;28;20796;-78
2021/01/12 01:54:58;;;;;;;104.30;27.70;;;;;;;;;;5104354;28;20275;-78
2021/01/12 01:58:04;;;;;;;90.60;26.80;;;;;;;;;;5100546;28;20336;-79
2021/01/12 02:01:09;;;;;;;112.00;27.67;;;;;;;;;;5093801;28;20316;-79
2021/01/12 02:04:16;;;;;;;99.90;29.63;;;;;;;;;;5100260;28;20266;-78
2021/01/12 02:07:22;;;;;;;97.67;28.33;;;;;;;;;;5101532;28;20212;-79
2021/01/12 02:10:27;;;;;;;100.07;27.67;;;;;;;;;;5083456;28;20229;-79
2021/01/12 02:13:33;;;;;;;91.87;27.73;;;;;;;;;;5101389;28;20347;-79
2021/01/12 02:16:40;;;;;;;91.87;25.70;;;;;;;;;;5093304;28;20220;-80
2021/01/12 02:19:46;;;;;;;78.97;24.17;;;;;;;;;;5091150;28;20262;-78
2021/01/12 02:23:03;;;;;;;83.03;24.47;;;;;;;;;;5101169;28;20250;-79
2021/01/12 02:26:09;;;;;;;76.67;23.70;;;;;;;;;;5093102;28;20206;-79
2021/01/12 02:29:13;;;;;;;80.90;24.27;;;;;;;;;;5087177;28;20308;-78
2021/01/12 02:32:18;;;;;;;94.17;26.60;;;;;;;;;;5115935;28;20215;-79
2021/01/12 02:35:23;;;;;;;87.60;25.53;;;;;;;;;;5120276;28;20229;-78
2021/01/12 02:38:28;;;;;;;84.50;25.70;;;;;;;;;;5109216;28;20197;-77
2021/01/12 02:41:34;;;;;;;85.90;22.93;;;;;;;;;;5092611;28;20248;-78
2021/01/12 02:44:40;;;;;;;91.87;26.13;;;;;;;;;;5093658;28;20595;-80
2021/01/12 02:47:45;;;;;;;90.40;26.00;;;;;;;;;;5099107;28;20285;-79
2021/01/12 02:50:54;;;;;;;97.93;25.57;;;;;;;;;;5094252;28;20578;-79
2021/01/12 02:53:59;;;;;;;101.10;27.93;;;;;;;;;;5103114;28;20201;-78
2021/01/12 02:57:05;;;;;;;101.97;27.67;;;;;;;;;;5084876;28;20255;-77
2021/01/12 03:00:10;;;;;;;101.07;28.53;;;;;;;;;;5106203;28;20205;-79
2021/01/12 03:03:15;;;;;;;97.50;27.47;;;;;;;;;;5093752;28;20224;-77
2021/01/12 03:06:20;;;;;;;105.57;28.10;;;;;;;;;;5086504;28;20267;-78
2021/01/12 03:09:25;;;;;;;89.37;25.87;;;;;;;;;;5092754;28;20189;-77
2021/01/12 03:12:30;;;;;;;98.83;27.63;;;;;;;;;;5094623;28;20262;-79
2021/01/12 03:15:36;;;;;;;93.37;25.90;;;;;;;;;;5091963;28;20193;-79
2021/01/12 03:18:41;;;;;;;100.80;28.97;;;;;;;;;;5094074;28;20717;-78
2021/01/12 03:21:46;;;;;;;91.83;27.00;;;;;;;;;;5095147;28;20236;-78
2021/01/12 03:24:51;;;;;;;101.33;28.77;;;;;;;;;;5090843;28;20950;-79
2021/01/12 03:27:56;;;;;;;95.20;27.23;;;;;;;;;;5094259;28;20197;-78
2021/01/12 03:31:01;;;;;;;98.57;26.70;;;;;;;;;;5094455;28;20306;-78
2021/01/12 03:34:05;;;;;;;103.57;26.93;;;;;;;;;;5101189;28;20277;-78
2021/01/12 03:37:11;;;;;;;103.17;27.20;;;;;;;;;;5093159;28;20242;-77
2021/01/12 03:40:15;;;;;;;90.23;26.77;;;;;;;;;;5084281;28;20194;-79
2021/01/12 03:43:22;;;;;;;96.70;26.63;;;;;;;;;;5096333;28;20228;-78
2021/01/12 03:46:27;;;;;;;111.57;29.50;;;;;;;;;;5082870;28;20270;-78
2021/01/12 03:49:31;;;;;;;105.63;29.17;;;;;;;;;;5097511;28;20193;-78
2021/01/12 03:52:36;;;;;;;107.93;28.50;;;;;;;;;;5094912;28;20740;-78
2021/01/12 03:55:41;;;;;;;100.43;28.67;;;;;;;;;;5094902;28;20252;-78
2021/01/12 03:58:48;;;;;;;103.90;28.33;;;;;;;;;;5086972;28;20201;-77
2021/01/12 04:01:52;;;;;;;106.20;27.63;;;;;;;;;;5102430;28;20723;-79
2021/01/12 04:04:57;;;;;;;104.80;28.57;;;;;;;;;;5090525;28;20239;-79
2021/01/12 04:08:02;;;;;;;100.13;28.20;;;;;;;;;;5098908;28;20201;-78
2021/01/12 04:11:07;;;;;;;109.60;29.07;;;;;;;;;;5088744;28;20309;-78
2021/01/12 04:14:13;;;;;;;115.17;28.27;;;;;;;;;;5100778;28;20213;-78
2021/01/12 04:17:18;;;;;;;105.33;29.50;;;;;;;;;;5114558;28;20223;-78
2021/01/12 04:20:23;;;;;;;113.97;28.73;;;;;;;;;;5106082;28;20193;-79
2021/01/12 04:23:28;;;;;;;110.43;29.63;;;;;;;;;;5109913;28;20204;-78
2021/01/12 04:26:34;;;;;;;111.77;29.83;;;;;;;;;;5091042;28;20221;-78
2021/01/12 04:29:39;;;;;;;101.47;26.83;;;;;;;;;;5085644;28;20202;-79
2021/01/12 04:32:44;;;;;;;110.23;29.17;;;;;;;;;;5094476;28;20305;-78
2021/01/12 04:35:49;;;;;;;116.20;30.93;;;;;;;;;;5098325;28;20685;-78
2021/01/12 04:38:54;;;;;;;100.90;28.20;;;;;;;;;;5083567;28;20243;-79
2021/01/12 04:41:59;;;;;;;111.63;30.73;;;;;;;;;;5095116;28;20241;-78
2021/01/12 04:45:05;;;;;;;98.13;26.73;;;;;;;;;;5088855;28;20293;-78
2021/01/12 04:48:10;;;;;;;99.00;27.13;;;;;;;;;;5101843;28;20242;-78
2021/01/12 04:51:15;;;;;;;106.10;28.10;;;;;;;;;;5105496;28;20332;-79
2021/01/12 04:54:20;;;;;;;114.27;30.50;;;;;;;;;;5095361;28;20198;-78
2021/01/12 04:57:26;;;;;;;115.93;28.93;;;;;;;;;;5102349;28;20194;-79
2021/01/12 05:00:33;;;;;;;105.40;29.53;;;;;;;;;;5101736;28;20200;-78
2021/01/12 05:03:40;;;;;;;107.70;28.77;;;;;;;;;;5094553;28;20196;-79
2021/01/12 05:06:46;;;;;;;101.07;27.27;;;;;;;;;;5081481;28;20689;-80
2021/01/12 05:09:52;;;;;;;109.43;27.53;;;;;;;;;;5097361;28;20253;-79
2021/01/12 05:12:57;;;;;;;101.03;27.67;;;;;;;;;;5092630;28;20298;-77
2021/01/12 05:16:08;;;;;;;107.00;28.97;;;;;;;;;;5082786;28;20193;-79
2021/01/12 05:19:15;;;;;;;113.13;28.97;;;;;;;;;;5111551;28;20268;-78
2021/01/12 05:22:22;;;;;;;99.90;28.00;;;;;;;;;;5116064;28;20248;-79
2021/01/12 05:25:33;;;;;;;100.80;29.13;;;;;;;;;;5124309;28;20310;-77
2021/01/12 05:28:39;;;;;;;91.70;28.50;;;;;;;;;;5116010;28;20213;-79
2021/01/12 05:31:46;;;;;;;103.33;28.83;;;;;;;;;;5090419;28;20245;-78
2021/01/12 05:34:54;;;;;;;102.70;29.03;;;;;;;;;;5094520;28;20193;-77
2021/01/12 05:38:04;;;;;;;99.03;28.93;;;;;;;;;;5091774;28;20256;-77
2021/01/12 05:41:09;;;;;;;107.67;28.23;;;;;;;;;;5080963;28;20222;-77
2021/01/12 05:44:16;;;;;;;98.50;27.70;;;;;;;;;;5101317;28;20224;-79
2021/01/12 05:47:22;;;;;;;101.43;28.80;;;;;;;;;;5100987;28;20189;-78
2021/01/12 05:50:30;;;;;;;95.43;25.27;;;;;;;;;;5092208;28;20217;-78
2021/01/12 05:54:03;;;;;;;97.90;29.03;;;;;;;;;;5094350;28;20584;-79
2021/01/12 05:57:09;;;;;;;96.67;27.67;;;;;;;;;;5086290;28;20678;-79
2021/01/12 06:00:14;;;;;;;105.60;29.13;;;;;;;;;;5093938;28;20263;-77
2021/01/12 06:03:24;;;;;;;99.00;28.43;;;;;;;;;;5090795;28;20209;-78
2021/01/12 06:06:29;;;;;;;102.33;28.23;;;;;;;;;;5104403;28;20193;-78
2021/01/12 06:09:34;;;;;;;112.63;29.33;;;;;;;;;;5092626;28;20343;-77
2021/01/12 06:12:43;;;;;;;96.83;27.53;;;;;;;;;;5099391;28;20237;-78
2021/01/12 06:15:48;;;;;;;101.60;27.60;;;;;;;;;;5092106;28;20228;-78
2021/01/12 06:19:06;;;;;;;98.27;27.80;;;;;;;;;;5082994;28;20296;-78
2021/01/12 06:22:17;;;;;;;101.37;27.23;;;;;;;;;;5085908;28;20301;-77
2021/01/12 06:25:22;;;;;;;108.10;35.23;;;;;;;;;;5094897;28;20587;-77
2021/01/12 06:28:27;;;;;;;108.87;30.20;;;;;;;;;;5094666;28;20193;-77
2021/01/12 06:31:32;;;;;;;126.20;39.57;;;;;;;;;;5093828;28;20282;-77
2021/01/12 06:34:39;;;;;;;108.57;33.07;;;;;;;;;;5091442;28;20205;-78
2021/01/12 06:37:44;;;;;;;100.27;29.57;;;;;;;;;;5082445;28;20267;-78
2021/01/12 06:40:51;;;;;;;107.03;30.37;;;;;;;;;;5097458;28;20802;-77
2021/01/12 06:43:59;;;;;;;94.80;30.70;;;;;;;;;;5086510;28;20668;-78
2021/01/12 06:47:05;;;;;;;94.83;28.27;;;;;;;;;;5087097;28;20228;-77
2021/01/12 06:50:11;;;;;;;95.17;28.33;;;;;;;;;;5101325;28;20201;-78
2021/01/12 06:53:16;;;;;;;77.50;25.00;;;;;;;;;;5102341;28;20565;-78
2021/01/12 06:56:32;;;;;;;71.20;24.37;;;;;;;;;;5093897;28;20709;-78
2021/01/12 06:59:37;;;;;;;73.23;24.00;;;;;;;;;;5090302;28;20240;-78
2021/01/12 07:02:42;;;;;;;77.67;23.90;;;;;;;;;;5085511;28;20299;-79
2021/01/12 07:05:48;;;;;;;79.40;24.87;;;;;;;;;;5106737;28;20586;-79
2021/01/12 07:08:56;;;;;;;73.93;24.83;;;;;;;;;;5090088;28;20197;-79
2021/01/12 07:12:05;;;;;;;80.33;25.10;;;;;;;;;;5089896;28;20755;-78
2021/01/12 07:15:11;;;;;;;78.63;23.97;;;;;;;;;;5089916;28;20271;-78
2021/01/12 07:18:16;;;;;;;75.93;23.53;;;;;;;;;;5097287;28;20613;-78
2021/01/12 07:21:29;;;;;;;73.17;22.73;;;;;;;;;;5107452;28;20268;-79
2021/01/12 07:24:38;;;;;;;84.57;22.83;;;;;;;;;;5089926;28;20217;-78
2021/01/12 07:27:43;;;;;;;76.63;24.77;;;;;;;;;;5089898;28;20201;-78
2021/01/12 07:30:49;;;;;;;71.00;25.07;;;;;;;;;;5099762;28;20223;-79
2021/01/12 07:33:54;;;;;;;71.60;22.67;;;;;;;;;;5089932;28;20205;-78
2021/01/12 07:37:00;;;;;;;74.00;23.20;;;;;;;;;;5084005;28;20252;-78
2021/01/12 07:40:06;;;;;;;67.17;22.30;;;;;;;;;;5083921;28;20661;-77
2021/01/12 07:43:14;;;;;;;65.33;20.83;;;;;;;;;;5083138;28;20229;-77
2021/01/12 07:46:24;;;;;;;67.00;21.77;;;;;;;;;;5083175;28;20267;-77
2021/01/12 07:49:31;;;;;;;62.40;20.83;;;;;;;;;;5102298;28;20300;-78
2021/01/12 07:52:36;;;;;;;61.07;20.33;;;;;;;;;;5087361;28;20607;-77
2021/01/12 07:55:41;;;;;;;67.87;19.77;;;;;;;;;;5100221;28;20197;-76
2021/01/12 07:58:46;;;;;;;67.07;20.13;;;;;;;;;;5089341;28;20206;-79
2021/01/12 08:01:51;;;;;;;64.83;21.27;;;;;;;;;;5089504;28;20267;-77
2021/01/12 08:04:55;;;;;;;64.23;21.20;;;;;;;;;;5092705;28;20228;-77
2021/01/12 08:08:01;;;;;;;65.23;21.57;;;;;;;;;;5099088;28;20200;-77
2021/01/12 08:11:06;;;;;;;64.03;21.63;;;;;;;;;;5090706;28;20731;-76
2021/01/12 08:14:11;;;;;;;50.53;18.83;;;;;;;;;;5112127;28;20192;-78
2021/01/12 08:17:20;;;;;;;68.47;20.57;;;;;;;;;;5113344;28;20209;-77
2021/01/12 08:20:25;;;;;;;61.93;20.93;;;;;;;;;;5112836;28;20216;-76
2021/01/12 08:23:31;;;;;;;67.37;21.43;;;;;;;;;;5106595;28;20229;-76
2021/01/12 08:27:18;;;;;;;60.90;20.17;;;;;;;;;;5090152;28;20212;-77
2021/01/12 08:30:24;;;;;;;60.63;19.90;;;;;;;;;;5086043;28;20190;-76
2021/01/12 08:33:35;;;;;;;50.33;18.63;;;;;;;;;;5085976;28;20248;-77
2021/01/12 08:36:39;;;;;;;65.77;19.90;;;;;;;;;;5104648;28;20193;-76
2021/01/12 08:39:45;;;;;;;52.90;18.00;;;;;;;;;;5081112;28;20251;-77
2021/01/12 08:42:51;;;;;;;63.23;20.13;;;;;;;;;;5084896;28;20232;-79
2021/01/12 08:45:59;;;;;;;72.70;21.23;;;;;;;;;;5099652;28;20263;-77
2021/01/12 08:49:04;;;;;;;56.93;19.90;;;;;;;;;;5099401;28;20761;-78
2021/01/12 08:52:09;;;;;;;110.57;38.97;;;;;;;;;;5104398;28;20651;-77
2021/01/12 08:55:18;;;;;;;86.37;28.10;;;;;;;;;;5107399;28;20231;-76
2021/01/12 08:58:23;;;;;;;67.07;25.00;;;;;;;;;;5080120;28;20205;-76
2021/01/12 09:01:28;;;;;;;64.97;23.50;;;;;;;;;;5087188;28;20716;-76
2021/01/12 09:04:32;;;;;;;63.97;19.03;;;;;;;;;;5092383;28;20256;-78
2021/01/12 09:07:38;;;;;;;64.87;20.33;;;;;;;;;;5080047;28;20629;-78
2021/01/12 09:10:44;;;;;;;61.50;20.43;;;;;;;;;;5091386;28;20232;-78
2021/01/12 09:13:49;;;;;;;67.87;22.27;;;;;;;;;;5101177;28;20348;-78
2021/01/12 09:16:59;;;;;;;59.70;21.93;;;;;;;;;;5122216;28;20209;-79
2021/01/12 09:20:06;;;;;;;53.67;18.30;;;;;;;;;;5100092;28;20193;-78
2021/01/12 09:23:11;;;;;;;64.07;20.60;;;;;;;;;;5099484;28;20719;-78
2021/01/12 09:26:20;;;;;;;63.57;21.03;;;;;;;;;;5098889;28;20279;-78
2021/01/12 09:29:27;;;;;;;67.27;20.97;;;;;;;;;;5088028;28;20205;-79
2021/01/12 09:32:34;;;;;;;76.87;24.37;;;;;;;;;;5079166;28;20634;-78
2021/01/12 09:35:39;;;;;;;59.60;19.87;;;;;;;;;;5079921;28;20198;-78
2021/01/12 09:38:45;;;;;;;67.40;21.57;;;;;;;;;;5086506;28;20193;-78
2021/01/12 09:41:53;;;;;;;65.43;20.63;;;;;;;;;;5101824;28;20233;-78
2021/01/12 09:44:58;;;;;;;59.73;19.30;;;;;;;;;;5116991;27;20348;-78
2021/01/12 09:48:04;;;;;;;66.77;21.40;;;;;;;;;;5103108;28;20633;-79
2021/01/12 09:51:10;;;;;;;78.50;26.43;;;;;;;;;;5103159;28;20284;-78
2021/01/12 09:54:15;;;;;;;63.77;20.13;;;;;;;;;;5084018;28;20685;-78
2021/01/12 09:57:20;;;;;;;67.90;18.70;;;;;;;;;;5094506;28;20251;-78
2021/01/12 10:00:25;;;;;;;49.73;17.17;;;;;;;;;;5089438;28;20239;-78
2021/01/12 10:03:31;;;;;;;58.30;19.47;;;;;;;;;;5084691;28;20289;-78
2021/01/12 10:06:36;;;;;;;63.73;19.87;;;;;;;;;;5105730;28;20603;-78
2021/01/12 10:09:40;;;;;;;59.80;19.57;;;;;;;;;;5114436;28;20208;-79
2021/01/12 10:12:46;;;;;;;53.73;18.33;;;;;;;;;;5107097;28;20233;-78
2021/01/12 10:15:51;;;;;;;67.30;20.43;;;;;;;;;;5109960;28;20200;-78
2021/01/12 10:18:55;;;;;;;58.03;20.07;;;;;;;;;;5102677;28;20297;-78
2021/01/12 10:22:00;;;;;;;61.73;20.27;;;;;;;;;;5104267;28;21081;-76
2021/01/12 10:25:06;;;;;;;65.90;20.37;;;;;;;;;;5093527;28;20274;-77
2021/01/12 10:28:11;;;;;;;53.50;18.83;;;;;;;;;;5103356;28;20273;-78
2021/01/12 10:31:18;;;;;;;64.97;19.17;;;;;;;;;;5102745;28;20270;-77
2021/01/12 10:34:24;;;;;;;60.63;19.20;;;;;;;;;;5087192;28;20279;-77
2021/01/12 10:37:29;;;;;;;68.93;21.60;;;;;;;;;;5094042;28;20192;-77
2021/01/12 10:40:33;;;;;;;63.33;20.07;;;;;;;;;;5093861;28;20708;-77
2021/01/12 10:43:40;;;;;;;67.17;23.13;;;;;;;;;;5101322;28;20208;-77
2021/01/12 10:46:44;;;;;;;51.30;18.33;;;;;;;;;;5095862;28;20699;-77
2021/01/12 10:49:49;;;;;;;58.67;21.33;;;;;;;;;;5096103;28;20700;-78
2021/01/12 10:52:54;;;;;;;52.03;17.03;;;;;;;;;;5095132;28;20224;-78
2021/01/12 10:56:01;;;;;;;47.03;17.37;;;;;;;;;;5094163;28;20201;-77
2021/01/12 10:59:07;;;;;;;60.67;20.30;;;;;;;;;;5090368;28;20242;-78
2021/01/12 11:02:12;;;;;;;55.97;20.20;;;;;;;;;;5119315;28;20909;-78
2021/01/12 11:05:17;;;;;;;59.03;20.40;;;;;;;;;;5132684;28;20220;-77
2021/01/12 11:08:22;;;;;;;58.17;20.67;;;;;;;;;;5116038;28;20212;-79
2021/01/12 11:11:33;;;;;;;61.80;19.60;;;;;;;;;;5117791;28;20225;-77
2021/01/12 11:14:43;;;;;;;56.80;18.63;;;;;;;;;;5127647;28;20194;-79
2021/01/12 11:17:48;;;;;;;59.80;19.87;;;;;;;;;;5101248;28;20243;-78
2021/01/12 11:20:54;;;;;;;57.07;19.03;;;;;;;;;;5114319;28;20193;-78
2021/01/12 11:24:25;;;;;;;48.53;16.83;;;;;;;;;;5102419;28;20249;-78
2021/01/12 11:27:31;;;;;;;46.43;16.70;;;;;;;;;;5096577;28;20209;-78
2021/01/12 11:30:39;;;;;;;45.13;16.40;;;;;;;;;;5101673;28;20283;-77
2021/01/12 11:33:45;;;;;;;48.97;17.23;;;;;;;;;;5114791;28;20239;-78
2021/01/12 11:36:50;;;;;;;54.10;18.20;;;;;;;;;;5101925;28;20867;-77
2021/01/12 11:39:55;;;;;;;48.00;16.67;;;;;;;;;;5101956;28;20216;-77
2021/01/12 11:42:59;;;;;;;48.93;16.80;;;;;;;;;;5109672;28;20764;-77
2021/01/12 11:46:04;;;;;;;50.80;17.50;;;;;;;;;;5101338;28;20248;-77
2021/01/12 11:49:09;;;;;;;46.93;15.87;;;;;;;;;;5080652;28;20205;-77
2021/01/12 11:52:14;;;;;;;45.67;15.90;;;;;;;;;;5092062;28;20411;-77
2021/01/12 11:55:18;;;;;;;43.57;15.00;;;;;;;;;;5100406;28;20200;-78
2021/01/12 11:58:23;;;;;;;45.23;15.60;;;;;;;;;;5101806;28;20209;-78
2021/01/12 12:01:28;;;;;;;43.30;14.40;;;;;;;;;;5100588;28;20232;-78
2021/01/12 12:04:34;;;;;;;45.97;14.67;;;;;;;;;;5099394;28;20221;-77
2021/01/12 12:07:39;;;;;;;40.73;13.87;;;;;;;;;;5091122;28;20270;-78
2021/01/12 12:10:43;;;;;;;50.07;15.90;;;;;;;;;;5108003;28;20580;-80
2021/01/12 12:13:48;;;;;;;42.57;14.93;;;;;;;;;;5086063;28;20221;-80
2021/01/12 12:16:54;;;;;;;40.23;14.63;;;;;;;;;;5096929;28;20200;-81
2021/01/12 12:20:00;;;;;;;45.73;16.10;;;;;;;;;;5098200;28;20687;-80
2021/01/12 12:23:05;;;;;;;44.67;15.30;;;;;;;;;;5081440;28;20243;-80
2021/01/12 12:26:10;;;;;;;39.50;14.87;;;;;;;;;;5089337;28;20217;-77
2021/01/12 12:29:15;;;;;;;41.17;15.00;;;;;;;;;;5101646;28;20212;-78
2021/01/12 12:32:22;;;;;;;37.27;13.70;;;;;;;;;;5080018;28;20225;-77
2021/01/12 12:35:27;;;;;;;44.50;14.43;;;;;;;;;;5079689;28;20209;-78
2021/01/12 12:38:31;;;;;;;45.03;15.90;;;;;;;;;;5086957;28;20228;-80
2021/01/12 12:41:36;;;;;;;43.03;15.63;;;;;;;;;;5085111;28;20614;-79
2021/01/12 12:44:40;;;;;;;36.17;13.43;;;;;;;;;;5098353;28;20217;-79
2021/01/12 12:47:44;;;;;;;38.07;15.17;;;;;;;;;;5088807;28;20274;-77
2021/01/12 12:50:53;;;;;;;42.23;15.20;;;;;;;;;;5089775;28;20209;-77
2021/01/12 12:53:58;;;;;;;36.27;14.20;;;;;;;;;;5092222;28;20331;-77
2021/01/12 12:57:03;;;;;;;37.60;14.37;;;;;;;;;;5093777;28;20285;-77
2021/01/12 13:00:08;;;;;;;42.47;15.43;;;;;;;;;;5084458;28;20254;-77
2021/01/12 13:03:13;;;;;;;44.43;13.83;;;;;;;;;;5097549;28;20200;-77
2021/01/12 13:06:20;;;;;;;38.37;14.23;;;;;;;;;;5094334;28;20298;-78
2021/01/12 13:09:25;;;;;;;35.47;14.97;;;;;;;;;;5088968;28;20252;-77
2021/01/12 13:12:30;;;;;;;38.83;14.53;;;;;;;;;;5092198;28;20225;-77
2021/01/12 13:15:35;;;;;;;36.70;13.70;;;;;;;;;;5110567;28;20218;-77
2021/01/12 13:18:42;;;;;;;43.93;14.60;;;;;;;;;;5095372;28;20216;-78
2021/01/12 13:21:52;;;;;;;121.30;22.00;;;;;;;;;;5111978;28;20739;-78
2021/01/12 13:24:57;;;;;;;50.47;16.10;;;;;;;;;;5083068;28;20703;-78
2021/01/12 13:28:02;;;;;;;42.13;16.00;;;;;;;;;;5100666;28;20343;-77
2021/01/12 13:31:07;;;;;;;43.47;16.80;;;;;;;;;;5095383;28;20253;-77
2021/01/12 13:34:11;;;;;;;44.00;15.90;;;;;;;;;;5099381;28;20205;-78
2021/01/12 13:37:17;;;;;;;45.33;16.63;;;;;;;;;;5107184;28;20208;-78
2021/01/12 13:40:22;;;;;;;46.93;16.50;;;;;;;;;;5118708;28;20224;-78
2021/01/12 13:43:26;;;;;;;37.43;14.87;;;;;;;;;;5098688;28;20250;-78
2021/01/12 13:46:31;;;;;;;36.70;14.13;;;;;;;;;;5091735;28;20283;-78
2021/01/12 13:49:36;;;;;;;43.30;14.83;;;;;;;;;;5093259;28;20254;-77
2021/01/12 13:52:43;;;;;;;40.63;16.13;;;;;;;;;;5094592;28;20274;-78
2021/01/12 13:55:49;;;;;;;48.13;16.53;;;;;;;;;;5103047;28;20689;-78
2021/01/12 13:58:55;;;;;;;45.70;18.40;;;;;;;;;;5102140;28;20209;-78
2021/01/12 14:02:00;;;;;;;47.10;17.30;;;;;;;;;;5097630;28;20267;-78
2021/01/12 14:05:05;;;;;;;61.03;22.33;;;;;;;;;;5094015;28;20236;-77
2021/01/12 14:08:11;;;;;;;57.83;18.83;;;;;;;;;;5107675;28;20213;-78
2021/01/12 14:11:16;;;;;;;44.27;16.33;;;;;;;;;;5084283;28;20237;-78
2021/01/12 14:14:20;;;;;;;47.87;17.77;;;;;;;;;;5088052;28;20205;-77
2021/01/12 14:17:25;;;;;;;45.93;16.80;;;;;;;;;;5112408;28;20213;-78
2021/01/12 14:20:30;;;;;;;58.37;20.10;;;;;;;;;;5094830;28;20213;-78
2021/01/12 14:23:38;;;;;;;56.47;20.20;;;;;;;;;;5103532;28;20576;-78
2021/01/12 14:26:46;;;;;;;48.63;17.83;;;;;;;;;;5082970;28;20218;-78
2021/01/12 14:29:51;;;;;;;48.37;18.37;;;;;;;;;;5098074;28;20207;-76
2021/01/12 14:32:55;;;;;;;43.13;16.87;;;;;;;;;;5084429;28;20225;-79
2021/01/12 14:36:00;;;;;;;46.23;16.90;;;;;;;;;;5102077;28;20222;-75
2021/01/12 14:39:07;;;;;;;42.43;17.03;;;;;;;;;;5127432;27;20681;-76
2021/01/12 14:42:12;;;;;;;46.37;17.17;;;;;;;;;;5085304;28;20296;-75
2021/01/12 14:45:17;;;;;;;49.43;17.93;;;;;;;;;;5093916;28;20225;-78
2021/01/12 14:48:22;;;;;;;42.90;17.33;;;;;;;;;;5102059;28;20566;-76
2021/01/12 14:51:27;;;;;;;42.23;16.30;;;;;;;;;;5127136;27;20220;-75
2021/01/12 14:54:33;;;;;;;39.70;15.53;;;;;;;;;;5097842;28;20193;-76
2021/01/12 14:57:37;;;;;;;37.60;15.07;;;;;;;;;;5088153;28;20213;-78
2021/01/12 15:00:42;;;;;;;44.27;17.40;;;;;;;;;;5104379;28;20284;-78
2021/01/12 15:03:47;;;;;;;38.47;15.37;;;;;;;;;;5115855;28;20205;-78
2021/01/12 15:06:51;;;;;;;36.87;14.70;;;;;;;;;;5103832;28;20266;-77
2021/01/12 15:09:57;;;;;;;36.20;13.27;;;;;;;;;;5102051;28;20205;-78
2021/01/12 15:13:01;;;;;;;37.57;14.77;;;;;;;;;;5097389;28;20224;-77
2021/01/12 15:16:06;;;;;;;39.70;16.50;;;;;;;;;;5099842;28;20190;-77
2021/01/12 15:19:11;;;;;;;35.10;15.73;;;;;;;;;;5101715;28;20197;-76
2021/01/12 15:22:19;;;;;;;44.97;16.27;;;;;;;;;;5101233;28;20232;-78
2021/01/12 15:25:25;;;;;;;41.47;16.23;;;;;;;;;;5101646;28;20263;-78
2021/01/12 15:28:30;;;;;;;44.37;18.50;;;;;;;;;;5093997;28;20192;-75
2021/01/12 15:31:34;;;;;;;45.10;17.60;;;;;;;;;;5093088;28;20379;-75
2021/01/12 15:34:39;;;;;;;59.43;22.60;;;;;;;;;;5099357;28;20697;-75
2021/01/12 15:37:43;;;;;;;46.37;19.27;;;;;;;;;;5097620;28;20200;-75
2021/01/12 15:40:50;;;;;;;51.63;18.40;;;;;;;;;;5113075;28;20708;-76
2021/01/12 15:43:58;;;;;;;48.43;17.43;;;;;;;;;;5101222;28;20205;-75
2021/01/12 15:47:03;;;;;;;47.67;18.17;;;;;;;;;;5094657;28;20336;-76
2021/01/12 15:50:08;;;;;;;65.93;21.27;;;;;;;;;;5095532;28;20261;-78
2021/01/12 15:53:13;;;;;;;42.40;18.20;;;;;;;;;;5091082;28;20213;-78
2021/01/12 15:56:20;;;;;;;59.20;21.07;;;;;;;;;;5101896;28;20193;-79
2021/01/12 15:59:25;;;;;;;93.53;28.47;;;;;;;;;;5116665;28;20216;-79
2021/01/12 16:02:31;;;;;;;43.83;18.03;;;;;;;;;;5096495;28;20753;-76
2021/01/12 16:05:36;;;;;;;48.57;18.47;;;;;;;;;;5100905;28;20375;-77
2021/01/12 16:08:41;;;;;;;39.13;16.00;;;;;;;;;;5100842;28;20603;-79
2021/01/12 16:11:48;;;;;;;44.73;18.30;;;;;;;;;;5100498;28;20325;-77
2021/01/12 16:14:53;;;;;;;45.30;17.57;;;;;;;;;;5093478;28;20186;-76
2021/01/12 16:17:59;;;;;;;46.57;19.67;;;;;;;;;;5100993;28;20284;-75
2021/01/12 16:21:04;;;;;;;43.50;18.50;;;;;;;;;;5094794;28;20369;-78
2021/01/12 16:24:10;;;;;;;45.07;18.17;;;;;;;;;;5095302;28;20193;-75
2021/01/12 16:27:16;;;;;;;49.60;20.67;;;;;;;;;;5099116;28;20254;-80
2021/01/12 16:30:22;;;;;;;43.67;17.53;;;;;;;;;;5102353;28;20200;-79
2021/01/12 16:33:30;;;;;;;45.33;17.90;;;;;;;;;;5118514;28;20557;-80
2021/01/12 16:36:44;;;;;;;52.57;18.10;;;;;;;;;;5114643;28;20208;-80
2021/01/12 16:39:50;;;;;;;41.53;17.10;;;;;;;;;;5116845;28;20230;-79
2021/01/12 16:42:59;;;;;;;43.53;17.63;;;;;;;;;;5103153;28;20659;-78
2021/01/12 16:46:09;;;;;;;38.40;16.13;;;;;;;;;;5097150;28;20359;-79
2021/01/12 16:49:43;;;;;;;38.43;15.33;;;;;;;;;;5094953;28;20354;-79
2021/01/12 16:52:57;;;;;;;41.10;15.43;;;;;;;;;;5080744;28;20740;-79
2021/01/12 16:56:06;;;;;;;47.27;17.43;;;;;;;;;;5094593;28;20209;-79
2021/01/12 16:59:13;;;;;;;39.73;16.90;;;;;;;;;;5100839;28;20281;-79
2021/01/12 17:02:30;;;;;;;47.87;17.20;;;;;;;;;;5100908;28;20228;-78
2021/01/12 17:05:35;;;;;;;42.30;17.43;;;;;;;;;;5100794;28;20242;-79
2021/01/12 17:08:51;;;;;;;47.30;18.37;;;;;;;;;;5099396;28;20626;-78
2021/01/12 17:12:05;;;;;;;49.23;18.20;;;;;;;;;;5107947;28;20312;-79
2021/01/12 17:15:12;;;;;;;43.87;18.73;;;;;;;;;;5110132;28;20790;-79
2021/01/12 17:18:19;;;;;;;44.23;17.90;;;;;;;;;;5106878;28;20342;-77
2021/01/12 17:21:32;;;;;;;46.93;19.67;;;;;;;;;;5100167;28;20735;-76
2021/01/12 17:24:39;;;;;;;51.53;19.83;;;;;;;;;;5108393;28;20734;-78
2021/01/12 17:27:46;;;;;;;43.77;18.17;;;;;;;;;;5092581;28;20208;-76
2021/01/12 17:30:57;;;;;;;50.67;19.80;;;;;;;;;;5101923;28;20228;-75
2021/01/12 17:34:03;;;;;;;48.23;19.20;;;;;;;;;;5097011;28;20205;-74
2021/01/12 17:37:12;;;;;;;40.83;17.93;;;;;;;;;;5090226;28;20292;-74
2021/01/12 17:40:41;;;;;;;53.37;20.77;;;;;;;;;;5097710;28;20202;-76
2021/01/12 17:43:57;;;;;;;57.53;22.80;;;;;;;;;;5080670;28;20198;-76
2021/01/12 17:47:11;;;;;;;62.10;23.97;;;;;;;;;;5080459;28;20287;-78
2021/01/12 17:50:20;;;;;;;57.03;22.27;;;;;;;;;;5080920;28;20241;-78
2021/01/12 17:53:30;;;;;;;55.40;21.60;;;;;;;;;;5081078;28;20197;-76
2021/01/12 17:56:47;;;;;;;45.07;19.03;;;;;;;;;;5092212;28;20332;-78
2021/01/12 17:59:58;;;;;;;46.57;19.50;;;;;;;;;;5094503;28;20213;-78